Time;durP1;ratioP1;P1;durP2;ratioP2;P2;SDS_P1;SDS_P2;PMS_P1;PMS_P2;Temp;Humidity;BMP_temperature;BMP_pressure;BME280_temperature;BME280_humidity;BME280_pressure;Samples;Min_cycle;Max_cycle;Signal;HPM_P1;HPM_P2
2021/04/20 00:02:01;;;;;;;45.33;27.30;;;;;;;3.54;100.00;98838.19;4795448;29;103425;-80
2021/04/20 00:04:28;;;;;;;36.73;24.13;;;;;;;3.45;100.00;98841.22;4805956;29;102832;-80
2021/04/20 00:06:56;;;;;;;63.10;29.27;;;;;;;3.10;100.00;98836.56;4796198;29;103001;-80
2021/04/20 00:09:23;;;;;;;65.57;30.20;;;;;;;3.35;100.00;98834.66;4788201;29;104354;-80
2021/04/20 00:11:50;;;;;;;49.50;24.17;;;;;;;3.61;100.00;98829.19;4778859;29;103060;-80
2021/04/20 00:14:17;;;;;;;365.23;38.13;;;;;;;3.29;100.00;98832.28;4791033;29;103218;-80
2021/04/20 00:16:44;;;;;;;350.20;38.67;;;;;;;3.35;100.00;98826.81;4796223;29;103989;-79
2021/04/20 00:19:12;;;;;;;90.70;24.93;;;;;;;3.64;100.00;98825.59;4795839;29;103639;-80
2021/04/20 00:21:39;;;;;;;108.33;26.97;;;;;;;3.67;100.00;98828.09;4792541;29;103119;-79
2021/04/20 00:24:08;;;;;;;48.93;19.23;;;;;;;3.69;100.00;98819.28;4795804;29;103143;-80
2021/04/20 00:26:35;;;;;;;34.03;18.40;;;;;;;3.77;100.00;98818.94;4774806;29;104514;-80
2021/04/20 00:29:03;;;;;;;50.67;21.93;;;;;;;3.69;100.00;98814.03;4795287;29;103712;-79
2021/04/20 00:31:30;;;;;;;31.93;22.03;;;;;;;3.67;100.00;98812.41;4778182;29;103208;-79
2021/04/20 00:33:57;;;;;;;46.57;22.63;;;;;;;3.61;100.00;98807.44;4796119;29;102885;-79
2021/04/20 00:36:24;;;;;;;32.87;22.77;;;;;;;3.66;100.00;98813.31;4795443;29;105334;-80
2021/04/20 00:38:51;;;;;;;28.73;22.63;;;;;;;3.69;100.00;98816.66;4795051;29;104918;-80
2021/04/20 00:41:19;;;;;;;25.37;18.27;;;;;;;3.72;100.00;98811.31;4770797;29;103445;-79
2021/04/20 00:43:48;;;;;;;25.33;19.60;;;;;;;3.82;100.00;98807.38;4777827;29;103188;-79
2021/04/20 00:46:17;;;;;;;60.50;20.63;;;;;;;3.46;100.00;98793.25;4792712;29;104069;-79
2021/04/20 00:48:45;;;;;;;20.43;15.83;;;;;;;3.69;100.00;98806.19;4794902;29;103899;-80
2021/04/20 00:51:13;;;;;;;18.03;14.23;;;;;;;3.86;100.00;98803.72;4792490;29;102987;-79
2021/04/20 00:53:41;;;;;;;17.93;12.93;;;;;;;3.98;100.00;98797.09;4785396;29;103008;-79
2021/04/20 00:56:08;;;;;;;17.03;12.47;;;;;;;3.91;100.00;98796.50;4791239;29;103946;-80
2021/04/20 00:58:37;;;;;;;23.20;15.53;;;;;;;3.90;100.00;98807.88;4769681;29;104032;-80
2021/04/20 01:01:05;;;;;;;27.03;18.97;;;;;;;3.82;98.00;98806.50;4785706;29;103162;-80
2021/04/20 01:03:32;;;;;;;17.87;14.30;;;;;;;3.86;98.19;98803.72;4788821;29;103063;-80
2021/04/20 01:06:00;;;;;;;23.00;17.67;;;;;;;3.82;97.51;98801.28;4794999;29;104516;-79
2021/04/20 01:08:28;;;;;;;27.10;18.20;;;;;;;3.66;96.40;98803.72;4794307;29;103797;-79
2021/04/20 01:10:57;;;;;;;26.67;17.40;;;;;;;3.75;96.91;98799.88;4788681;29;103013;-80
2021/04/20 01:13:27;;;;;;;27.17;18.43;;;;;;;3.75;97.07;98800.72;4795538;29;103003;-80
2021/04/20 01:15:55;;;;;;;30.53;20.67;;;;;;;2.92;97.60;98802.44;4793487;29;104855;-80
2021/04/20 01:18:26;;;;;;;30.73;21.07;;;;;;;2.83;100.00;98800.22;4797559;29;104138;-80
2021/04/20 01:20:56;;;;;;;34.87;21.73;;;;;;;3.03;100.00;98801.19;4799961;29;103133;-79
2021/04/20 01:23:30;;;;;;;30.20;21.33;;;;;;;3.06;100.00;98799.28;4794175;29;103308;-79
2021/04/20 01:25:58;;;;;;;35.00;19.03;;;;;;;3.23;100.00;98801.22;4794472;29;104116;-80
2021/04/20 01:28:27;;;;;;;31.93;18.50;;;;;;;3.39;100.00;98802.28;4793007;29;105143;-80
2021/04/20 01:30:54;;;;;;;376.10;31.77;;;;;;;3.05;100.00;98796.75;4794336;29;103802;-79
2021/04/20 01:33:21;;;;;;;454.37;34.10;;;;;;;2.90;100.00;98788.63;4795659;29;102958;-80
2021/04/20 01:35:51;;;;;;;59.20;16.23;;;;;;;3.07;100.00;98793.16;4777936;29;105109;-80
2021/04/20 01:38:19;;;;;;;37.10;16.50;;;;;;;3.34;100.00;98799.03;4794443;29;104124;-80
2021/04/20 01:40:46;;;;;;;24.40;18.70;;;;;;;3.48;100.00;98791.47;4772320;29;103050;-79
2021/04/20 01:43:15;;;;;;;30.00;19.10;;;;;;;3.55;100.00;98797.25;4785975;29;103014;-79
2021/04/20 01:45:43;;;;;;;23.17;14.57;;;;;;;3.54;100.00;98790.34;4794164;29;103264;-79
2021/04/20 01:48:10;;;;;;;34.57;18.17;;;;;;;3.51;100.00;98792.16;4793578;29;103848;-79
2021/04/20 01:50:41;;;;;;;24.07;16.07;;;;;;;3.50;100.00;98793.09;4776392;29;104356;-79
2021/04/20 01:53:08;;;;;;;28.73;16.93;;;;;;;3.55;100.00;98797.25;4791688;29;103402;-80
2021/04/20 01:55:35;;;;;;;43.63;18.57;;;;;;;3.57;100.00;98796.25;4793862;29;104402;-80
2021/04/20 01:58:04;;;;;;;19.43;14.87;;;;;;;3.63;100.00;98801.22;4782561;29;103735;-80
2021/04/20 02:00:32;;;;;;;38.97;19.40;;;;;;;3.70;100.00;98807.06;4794328;29;103027;-80
2021/04/20 02:03:00;;;;;;;117.53;22.83;;;;;;;3.62;99.35;98804.75;4801053;29;105802;-80
2021/04/20 02:05:27;;;;;;;20.70;16.20;;;;;;;3.60;98.74;98805.72;4793210;29;104044;-80
2021/04/20 02:07:58;;;;;;;194.00;26.17;;;;;;;3.02;100.00;98805.53;4793530;29;103859;-79
2021/04/20 02:10:26;;;;;;;309.97;31.73;;;;;;;2.60;100.00;98812.44;4780047;29;103246;-79
2021/04/20 02:12:53;;;;;;;285.77;29.47;;;;;;;2.45;100.00;98806.06;4794346;29;102882;-80
2021/04/20 02:15:23;;;;;;;217.53;27.37;;;;;;;2.40;100.00;98805.38;4774895;29;106546;-80
2021/04/20 02:17:53;;;;;;;164.60;25.73;;;;;;;2.40;100.00;98801.94;4789106;29;103873;-80
2021/04/20 02:20:21;;;;;;;122.37;21.43;;;;;;;2.34;100.00;98805.63;4783354;29;103333;-80
2021/04/20 02:22:50;;;;;;;91.53;19.63;;;;;;;2.67;100.00;98798.25;4794625;29;102980;-80
2021/04/20 02:25:18;;;;;;;18.53;14.90;;;;;;;2.88;100.00;98794.81;4793610;29;103982;-80
2021/04/20 02:27:48;;;;;;;27.23;20.47;;;;;;;2.93;100.00;98798.94;4769339;29;103187;-80
2021/04/20 02:30:17;;;;;;;24.50;17.47;;;;;;;2.95;100.00;98798.03;4793085;29;102663;-79
2021/04/20 02:32:45;;;;;;;28.23;15.93;;;;;;;3.02;100.00;98796.88;4794090;29;102836;-80
2021/04/20 02:35:16;;;;;;;17.17;12.60;;;;;;;3.11;100.00;98804.34;4794471;29;104445;-79
2021/04/20 02:37:44;;;;;;;21.33;13.87;;;;;;;3.12;100.00;98800.78;4811681;29;103812;-80
2021/04/20 02:40:18;;;;;;;70.03;18.03;;;;;;;2.78;100.00;98799.53;4809952;29;102922;-80
2021/04/20 02:42:46;;;;;;;32.10;16.47;;;;;;;2.69;100.00;98799.91;4774148;29;103160;-80
2021/04/20 02:45:13;;;;;;;29.93;14.53;;;;;;;2.77;100.00;98797.84;4779257;29;104213;-79
2021/04/20 02:47:40;;;;;;;19.57;12.13;;;;;;;2.95;100.00;98795.44;4792359;29;103218;-80
2021/04/20 02:50:09;;;;;;;15.40;12.63;;;;;;;2.97;100.00;98793.59;4783202;29;103140;-79
2021/04/20 02:52:38;;;;;;;62.93;20.53;;;;;;;2.70;99.40;98801.59;4808494;29;103627;-80
2021/04/20 02:55:07;;;;;;;40.17;18.60;;;;;;;2.52;100.00;98796.25;4810692;29;104110;-80
2021/04/20 02:57:37;;;;;;;86.77;20.40;;;;;;;2.56;100.00;98800.44;4806401;29;103765;-79
2021/04/20 03:00:08;;;;;;;33.17;16.43;;;;;;;2.42;100.00;98800.97;4801502;29;102571;-80
2021/04/20 03:02:38;;;;;;;28.33;15.70;;;;;;;2.34;100.00;98797.78;4826273;29;103118;-80
2021/04/20 03:05:07;;;;;;;182.00;21.90;;;;;;;2.32;100.00;98794.41;4811825;29;104360;-80
2021/04/20 03:07:35;;;;;;;82.10;16.57;;;;;;;2.28;100.00;98796.28;4810982;29;103874;-79
2021/04/20 03:10:03;;;;;;;158.17;20.43;;;;;;;2.40;100.00;98792.34;4813521;29;103158;-80
2021/04/20 03:12:30;;;;;;;108.37;18.77;;;;;;;2.37;100.00;98787.25;4812180;29;102987;-80
2021/04/20 03:15:00;;;;;;;144.53;18.67;;;;;;;2.27;100.00;98791.13;4804082;29;104086;-79
2021/04/20 03:17:27;;;;;;;165.50;20.83;;;;;;;2.27;100.00;98791.13;4794803;29;104399;-79
2021/04/20 03:19:56;;;;;;;100.00;20.90;;;;;;;2.55;100.00;98797.00;4810053;29;102945;-80
2021/04/20 03:22:25;;;;;;;389.07;29.57;;;;;;;2.26;100.00;98790.28;4811345;29;103051;-80
2021/04/20 03:25:13;;;;;;;291.73;27.03;;;;;;;2.19;100.00;98785.34;4812179;29;104103;-80
2021/04/20 03:27:44;;;;;;;254.57;29.20;;;;;;;2.06;100.00;98786.69;4809062;29;104270;-80
2021/04/20 03:30:13;;;;;;;171.40;20.27;;;;;;;2.06;100.00;98784.09;4817134;29;102626;-82
2021/04/20 03:32:45;;;;;;;17.93;12.27;;;;;;;2.36;100.00;98775.09;4812326;29;102998;-82
2021/04/20 03:35:17;;;;;;;77.53;18.40;;;;;;;2.43;100.00;98775.72;4793251;29;104923;-82
2021/04/20 03:37:51;;;;;;;82.87;16.90;;;;;;;2.36;100.00;98769.91;4778032;29;104564;-83
2021/04/20 03:40:21;;;;;;;72.67;19.23;;;;;;;2.37;100.00;98769.00;4810593;29;102966;-82
2021/04/20 03:42:53;;;;;;;27.53;14.63;;;;;;;2.47;100.00;98770.31;4814701;29;102808;-83
2021/04/20 03:45:23;;;;;;;99.13;18.23;;;;;;;2.35;100.00;98773.44;4812853;29;103882;-82
2021/04/20 03:47:54;;;;;;;82.80;18.83;;;;;;;2.40;100.00;98779.31;4809207;29;104893;-81
2021/04/20 03:50:27;;;;;;;137.40;21.37;;;;;;;2.25;100.00;98772.06;4793654;29;103873;-81
2021/04/20 03:52:58;;;;;;;171.90;23.17;;;;;;;2.25;100.00;98769.44;4792225;29;102881;-81
2021/04/20 03:55:29;;;;;;;122.50;22.17;;;;;;;2.32;100.00;98769.19;4797879;29;103509;-80
2021/04/20 03:57:58;;;;;;;85.90;17.53;;;;;;;2.38;100.00;98773.31;4787789;29;103418;-81
2021/04/20 04:00:26;;;;;;;36.30;16.70;;;;;;;2.52;100.00;98776.25;4792156;29;102882;-81
2021/04/20 04:02:54;;;;;;;74.87;17.33;;;;;;;2.53;100.00;98775.31;4793240;29;102872;-81
2021/04/20 04:05:27;;;;;;;145.73;20.30;;;;;;;2.50;100.00;98772.00;4773447;29;106169;-81
2021/04/20 04:07:56;;;;;;;58.60;19.10;;;;;;;2.57;100.00;98763.88;4806670;29;104291;-81
2021/04/20 04:10:25;;;;;;;22.17;15.50;;;;;;;2.69;100.00;98765.16;4768688;29;103292;-81
2021/04/20 04:12:56;;;;;;;26.17;15.70;;;;;;;2.88;100.00;98764.34;4775158;29;103418;-81
2021/04/20 04:15:24;;;;;;;25.73;15.00;;;;;;;3.05;100.00;98760.19;4786136;29;104760;-80
2021/04/20 04:17:53;;;;;;;28.50;17.77;;;;;;;3.18;100.00;98761.38;4791400;29;103687;-78
2021/04/20 04:20:21;;;;;;;29.93;17.67;;;;;;;3.28;100.00;98762.72;4787200;29;103132;-76
2021/04/20 04:22:54;;;;;;;33.83;20.47;;;;;;;3.31;100.00;98765.19;4782950;29;103035;-78
2021/04/20 04:25:26;;;;;;;23.30;14.73;;;;;;;3.33;100.00;98771.19;4758229;29;104026;-78
2021/04/20 04:27:57;;;;;;;34.83;19.40;;;;;;;3.34;100.00;98775.53;4766113;29;105329;-79
2021/04/20 04:30:26;;;;;;;40.17;20.10;;;;;;;3.01;100.00;98774.28;4788891;29;103232;-89
2021/04/20 04:32:54;;;;;;;28.97;16.50;;;;;;;3.06;100.00;98773.16;4792005;29;103286;-89
2021/04/20 04:35:22;;;;;;;27.80;16.87;;;;;;;3.18;100.00;98777.91;4789358;29;103200;-91
2021/04/20 04:37:50;;;;;;;63.13;23.67;;;;;;;3.18;100.00;98777.91;4774460;29;106371;-92
2021/04/20 04:40:19;;;;;;;40.17;21.13;;;;;;;3.28;100.00;98776.63;4787631;29;103321;-84
2021/04/20 04:42:48;;;;;;;36.40;20.77;;;;;;;3.20;100.00;98777.84;4780288;29;103122;-84
2021/04/20 04:45:17;;;;;;;89.33;25.10;;;;;;;2.89;100.00;98784.28;4788098;29;104145;-89
2021/04/20 04:47:45;;;;;;;64.53;24.30;;;;;;;2.82;100.00;98774.19;4786089;29;104720;-88
2021/04/20 04:50:13;;;;;;;34.77;17.87;;;;;;;2.93;100.00;98777.19;4767953;29;103207;-87
2021/04/20 04:52:41;;;;;;;56.37;19.67;;;;;;;3.08;100.00;98770.50;4769382;29;103068;-88
2021/04/20 04:55:09;;;;;;;59.53;21.30;;;;;;;3.02;100.00;98774.22;4774315;29;104442;-88
2021/04/20 04:57:37;;;;;;;110.23;21.47;;;;;;;2.88;100.00;98777.41;4792488;29;104070;-89
2021/04/20 05:00:06;;;;;;;34.37;18.40;;;;;;;3.11;100.00;98775.63;4793672;29;103132;-85
2021/04/20 05:02:35;;;;;;;25.73;15.37;;;;;;;3.29;100.00;98775.69;4794082;29;104475;-90
2021/04/20 05:05:06;;;;;;;36.13;20.07;;;;;;;3.46;100.00;98782.81;4795223;29;103771;-89
2021/04/20 05:07:34;;;;;;;130.57;28.50;;;;;;;3.20;100.00;98790.91;4795605;29;104153;-89
2021/04/20 05:10:02;;;;;;;77.47;24.90;;;;;;;3.14;100.00;98780.72;4777758;29;103273;-89
2021/04/20 05:12:31;;;;;;;154.30;23.87;;;;;;;3.04;100.00;98784.59;4795728;29;103214;-88
2021/04/20 05:15:05;;;;;;;34.57;19.80;;;;;;;3.22;100.00;98787.31;4789510;29;103593;-87
2021/04/20 05:17:37;;;;;;;102.00;22.60;;;;;;;3.14;100.00;98791.16;4801516;29;103628;-87
2021/04/20 05:20:06;;;;;;;197.30;24.00;;;;;;;2.97;100.00;98791.84;4791731;29;103118;-88
2021/04/20 05:22:34;;;;;;;157.13;22.37;;;;;;;2.40;100.00;98794.97;4792152;29;103091;-88
2021/04/20 05:25:05;;;;;;;44.37;18.27;;;;;;;2.21;100.00;98804.38;4810612;29;103452;-87
2021/04/20 05:27:33;;;;;;;194.93;23.80;;;;;;;2.19;100.00;98801.00;4780879;29;103239;-90
2021/04/20 05:30:00;;;;;;;166.20;23.33;;;;;;;2.41;100.00;98791.44;4784905;29;102901;-87
2021/04/20 05:32:27;;;;;;;100.97;20.83;;;;;;;2.37;100.00;98800.28;4778319;29;104759;-91
2021/04/20 05:35:00;;;;;;;180.67;23.87;;;;;;;2.28;100.00;98790.19;4786576;29;104142;-90
2021/04/20 05:37:34;;;;;;;138.33;22.17;;;;;;;2.31;100.00;98795.31;4793044;29;103017;-89
2021/04/20 05:40:07;;;;;;;219.50;24.33;;;;;;;2.52;100.00;98791.03;4770951;29;103156;-89
2021/04/20 05:42:35;;;;;;;175.90;24.00;;;;;;;2.53;100.00;98798.78;4777557;29;103291;-85
2021/04/20 05:45:03;;;;;;;47.47;17.93;;;;;;;2.85;100.00;98790.56;4787436;29;104212;-87
2021/04/20 05:47:31;;;;;;;201.50;23.03;;;;;;;2.73;100.00;98796.25;4784871;29;103788;-86
2021/04/20 05:50:01;;;;;;;111.80;21.13;;;;;;;2.64;100.00;98796.63;4772589;29;103346;-86
2021/04/20 05:52:29;;;;;;;114.63;19.60;;;;;;;2.79;100.00;98795.16;4793861;29;103593;-90
2021/04/20 05:54:57;;;;;;;219.50;24.03;;;;;;;2.67;100.00;98801.72;4792967;29;103539;-88
2021/04/20 05:57:25;;;;;;;140.03;24.13;;;;;;;2.82;100.00;98784.63;4794683;29;102854;-90
2021/04/20 05:59:54;;;;;;;241.83;27.93;;;;;;;2.62;100.00;98795.84;4785734;29;102964;-88
2021/04/20 06:02:24;;;;;;;53.40;19.13;;;;;;;2.76;100.00;98796.16;4791079;29;103225;-89
2021/04/20 06:04:53;;;;;;;296.30;31.97;;;;;;;2.70;100.00;98801.59;4792392;29;103870;-88
2021/04/20 06:07:22;;;;;;;159.43;26.93;;;;;;;2.87;100.00;98807.00;4792208;29;104172;-89
2021/04/20 06:09:49;;;;;;;272.13;29.10;;;;;;;2.59;100.00;98809.00;4782420;29;103306;-89
2021/04/20 06:12:17;;;;;;;84.43;24.20;;;;;;;2.81;100.00;98801.16;4789961;29;102805;-88
2021/04/20 06:14:44;;;;;;;49.20;21.50;;;;;;;3.17;100.00;98804.09;4791197;29;104231;-90
2021/04/20 06:17:13;;;;;;;21.10;18.43;;;;;;;3.32;100.00;98795.59;4791794;29;103832;-84
2021/04/20 06:19:41;;;;;;;18.87;16.17;;;;;;;3.59;100.00;98807.53;4791531;29;103061;-87
2021/04/20 06:22:11;;;;;;;127.80;26.07;;;;;;;3.69;100.00;98795.75;4779239;29;103103;-92
2021/04/20 06:24:40;;;;;;;172.13;22.93;;;;;;;3.50;100.00;98803.53;4799103;29;104109;-89
2021/04/20 06:27:08;;;;;;;75.70;21.63;;;;;;;3.78;100.00;98813.66;4797507;29;104296;-88
2021/04/20 06:29:36;;;;;;;113.50;22.77;;;;;;;3.85;100.00;98806.38;4790484;29;103259;-90
2021/04/20 06:32:05;;;;;;;19.00;16.20;;;;;;;4.27;100.00;98804.47;4789571;29;103510;-93
2021/04/20 06:34:33;;;;;;;25.83;20.83;;;;;;;4.51;100.00;98802.53;4790905;29;106233;-87
2021/04/20 06:37:01;;;;;;;103.63;24.13;;;;;;;4.13;100.00;98812.09;4774837;29;103799;-87
2021/04/20 06:39:28;;;;;;;106.87;22.30;;;;;;;4.08;100.00;98814.91;4789474;29;103447;-87
2021/04/20 06:41:59;;;;;;;173.03;25.67;;;;;;;3.62;100.00;98815.19;4784975;29;103823;-87
2021/04/20 06:44:33;;;;;;;41.23;22.03;;;;;;;3.98;100.00;98813.66;4774258;29;104914;-92
2021/04/20 06:47:09;;;;;;;227.67;29.43;;;;;;;3.37;100.00;98814.53;4790911;29;103634;-89
2021/04/20 06:49:43;;;;;;;234.47;29.50;;;;;;;3.44;100.00;98816.84;4772579;29;103336;-90
2021/04/20 06:52:17;;;;;;;132.67;28.07;;;;;;;3.68;100.00;98817.56;4785046;29;103392;-85
2021/04/20 06:54:52;;;;;;;133.20;28.73;;;;;;;3.59;100.00;98819.72;4778735;29;103477;-87
2021/04/20 06:57:31;;;;;;;112.10;27.20;;;;;;;3.83;100.00;98813.44;4788656;29;104081;-87
2021/04/20 07:00:04;;;;;;;57.83;27.77;;;;;;;4.14;100.00;98818.19;4778947;29;103110;-85
2021/04/20 07:02:43;;;;;;;62.17;23.50;;;;;;;4.28;100.00;98823.63;4773331;29;103413;-84
2021/04/20 07:05:12;;;;;;;100.87;27.53;;;;;;;4.22;100.00;98816.91;4782242;29;106208;-88
2021/04/20 07:07:53;;;;;;;65.37;24.53;;;;;;;4.33;100.00;98814.66;4790994;29;104346;-88
2021/04/20 07:10:25;;;;;;;52.40;23.37;;;;;;;4.54;100.00;98815.47;4778689;29;103117;-88
2021/04/20 07:12:58;;;;;;;69.27;26.23;;;;;;;4.57;100.00;98804.84;4789870;29;103275;-82
2021/04/20 07:15:29;;;;;;;58.97;27.83;;;;;;;4.80;100.00;98807.22;4789625;29;108333;-84
2021/04/20 07:18:13;;;;;;;38.27;25.63;;;;;;;5.12;100.00;98811.78;4788756;29;105356;-81
2021/04/20 07:20:51;;;;;;;41.23;27.43;;;;;;;5.30;100.00;98804.81;4786508;29;103178;-85
2021/04/20 07:23:54;;;;;;;42.23;25.63;;;;;;;5.35;100.00;98813.28;4773451;29;104169;-83
2021/04/20 07:27:00;;;;;;;34.80;25.40;;;;;;;5.74;100.00;98811.28;4789718;29;112130;-81
2021/04/20 07:29:35;;;;;;;42.10;25.67;;;;;;;5.59;100.00;98816.44;4771078;29;104675;-83
2021/04/20 07:32:22;;;;;;;31.10;25.90;;;;;;;5.74;100.00;98815.66;4788350;29;103365;-83
2021/04/20 07:35:12;;;;;;;33.43;27.33;;;;;;;6.51;100.00;98806.38;4790514;29;103808;-82
2021/04/20 07:37:42;;;;;;;31.77;26.33;;;;;;;6.77;100.00;98818.03;4789622;29;103374;-82
2021/04/20 07:40:30;;;;;;;28.37;23.47;;;;;;;7.24;100.00;98807.53;4788322;29;104349;-83
2021/04/20 07:43:21;;;;;;;23.10;19.80;;;;;;;7.94;95.07;98806.88;4786428;29;103116;-82
2021/04/20 07:45:54;;;;;;;28.07;23.43;;;;;;;7.90;92.44;98805.34;4789484;29;103563;-83
2021/04/20 07:48:33;;;;;;;26.50;23.53;;;;;;;6.91;96.25;98807.63;4779125;29;105583;-83
2021/04/20 07:51:08;;;;;;;24.10;21.50;;;;;;;7.99;95.02;98805.66;4787715;29;103933;-83
2021/04/20 07:53:44;;;;;;;25.30;21.03;;;;;;;8.86;90.18;98797.66;4787437;29;102946;-83
2021/04/20 07:56:20;;;;;;;28.67;25.20;;;;;;;7.58;92.14;98794.09;4787242;29;103360;-83
2021/04/20 07:58:50;;;;;;;25.50;22.80;;;;;;;8.58;91.11;98793.28;4788390;29;104144;-82
2021/04/20 08:01:30;;;;;;;23.63;21.17;;;;;;;9.29;89.88;98794.75;4787135;29;103753;-82
2021/04/20 08:04:09;;;;;;;25.90;23.00;;;;;;;9.77;85.71;98789.81;4786840;29;102825;-82
2021/04/20 08:06:38;;;;;;;25.20;21.47;;;;;;;10.50;84.29;98793.53;4789781;29;103157;-83
2021/04/20 08:09:12;;;;;;;25.97;23.23;;;;;;;9.76;83.60;98796.03;4788356;29;103936;-83
2021/04/20 08:11:45;;;;;;;21.30;19.03;;;;;;;10.94;83.25;98791.22;4784306;29;104442;-83
2021/04/20 08:14:19;;;;;;;27.33;22.97;;;;;;;10.47;83.98;98793.75;4789574;29;103076;-83
2021/04/20 08:16:52;;;;;;;22.87;20.47;;;;;;;11.38;82.50;98787.13;4789898;29;103525;-81
2021/04/20 08:19:24;;;;;;;24.13;21.53;;;;;;;11.99;77.39;98784.22;4788775;29;103964;-82
2021/04/20 08:21:51;;;;;;;22.47;20.07;;;;;;;12.25;79.49;98782.19;4786444;29;103247;-83
2021/04/20 08:24:22;;;;;;;25.53;22.40;;;;;;;11.83;78.15;98783.69;4787903;29;103371;-84
2021/04/20 08:26:56;;;;;;;28.03;24.33;;;;;;;11.76;79.89;98776.34;4788290;29;103422;-82
2021/04/20 08:29:27;;;;;;;22.77;20.43;;;;;;;12.98;78.18;98773.72;4788611;29;103243;-82
2021/04/20 08:31:58;;;;;;;26.33;23.53;;;;;;;13.10;75.03;98772.75;4788440;29;103639;-83
2021/04/20 08:34:35;;;;;;;24.37;21.60;;;;;;;13.65;71.58;98774.34;4792423;29;103004;-83
2021/04/20 08:37:30;;;;;;;21.17;18.80;;;;;;;14.06;72.12;98765.56;4775745;29;103059;-82
2021/04/20 08:40:12;;;;;;;27.43;24.60;;;;;;;12.85;76.68;98773.88;4785246;29;104453;-81
2021/04/20 08:43:09;;;;;;;27.03;24.23;;;;;;;13.48;73.17;98774.91;4789916;29;106285;-81
2021/04/20 08:45:41;;;;;;;26.20;23.30;;;;;;;14.38;72.38;98772.47;4790742;29;103105;-82
2021/04/20 08:48:19;;;;;;;27.83;24.63;;;;;;;14.71;69.13;98766.03;4790364;29;103129;-82
2021/04/20 08:50:56;;;;;;;25.60;22.97;;;;;;;14.70;70.00;98766.16;4779042;29;104870;-83
2021/04/20 08:53:44;;;;;;;28.03;25.20;;;;;;;14.85;66.95;98770.16;4802930;29;106095;-81
2021/04/20 08:56:20;;;;;;;27.67;24.30;;;;;;;14.09;69.82;98770.63;4803076;29;102892;-83
2021/04/20 08:59:17;;;;;;;23.10;20.87;;;;;;;15.42;67.19;98762.25;4782166;29;103108;-84
2021/04/20 09:01:58;;;;;;;25.43;22.93;;;;;;;14.13;69.78;98764.91;4800637;29;103463;-79
2021/04/20 09:04:58;;;;;;;26.07;22.70;;;;;;;14.79;66.48;98763.53;4795649;29;103679;-81
2021/04/20 09:07:33;;;;;;;26.10;23.50;;;;;;;13.92;69.90;98756.94;4796961;29;103380;-80
2021/04/20 09:10:05;;;;;;;26.03;23.53;;;;;;;14.41;67.29;98758.91;4802545;29;103137;-82
2021/04/20 09:12:37;;;;;;;24.67;22.23;;;;;;;12.97;69.34;98766.75;4788132;29;104998;-79
2021/04/20 09:15:08;;;;;;;26.63;24.03;;;;;;;13.64;69.62;98768.19;4785261;29;103994;-79
2021/04/20 09:17:42;;;;;;;25.13;22.63;;;;;;;15.26;68.36;98759.28;4793101;29;103207;-81
2021/04/20 09:20:14;;;;;;;24.10;21.63;;;;;;;15.97;64.53;98754.53;4785844;29;103256;-80
2021/04/20 09:22:51;;;;;;;27.17;24.30;;;;;;;15.83;64.57;98757.63;4799136;29;105169;-81
2021/04/20 09:25:24;;;;;;;27.53;24.73;;;;;;;14.06;67.01;98757.59;4793420;29;105355;-83
2021/04/20 09:28:01;;;;;;;27.63;24.77;;;;;;;14.11;68.63;98750.06;4791400;29;103291;-83
2021/04/20 09:30:35;;;;;;;26.43;23.77;;;;;;;14.62;66.96;98750.91;4798058;29;103003;-83
2021/04/20 09:33:08;;;;;;;25.23;22.73;;;;;;;14.56;66.92;98747.94;4801078;29;104062;-83
2021/04/20 09:35:38;;;;;;;22.87;20.67;;;;;;;13.96;64.93;98757.53;4801698;29;103584;-83
2021/04/20 09:38:10;;;;;;;23.23;20.83;;;;;;;14.69;62.46;98745.88;4798792;29;102597;-83
2021/04/20 09:40:41;;;;;;;20.20;18.30;;;;;;;15.82;63.07;98751.47;4792490;29;103266;-86
2021/04/20 09:43:20;;;;;;;18.97;17.07;;;;;;;16.54;59.72;98742.84;4795793;29;103438;-82
2021/04/20 09:45:57;;;;;;;19.80;17.90;;;;;;;16.38;59.48;98746.13;4800918;29;103821;-82
2021/04/20 09:48:32;;;;;;;21.30;19.10;;;;;;;14.35;60.23;98743.50;4800379;29;103069;-82
2021/04/20 09:51:07;;;;;;;21.87;19.37;;;;;;;14.86;62.77;98750.53;4804613;29;102920;-82
2021/04/20 09:53:50;;;;;;;20.43;18.43;;;;;;;14.42;63.11;98747.31;4815183;29;106023;-82
2021/04/20 09:56:26;;;;;;;18.90;17.00;;;;;;;15.51;60.51;98744.63;4799007;29;103363;-83
2021/04/20 09:58:55;;;;;;;19.97;17.97;;;;;;;15.76;58.75;98744.03;4821032;29;103016;-84
2021/04/20 10:01:42;;;;;;;19.37;17.37;;;;;;;15.73;62.00;98743.47;4820124;29;103017;-83
2021/04/20 10:04:11;;;;;;;21.90;19.67;;;;;;;14.09;62.16;98747.53;4802734;29;103363;-83
2021/04/20 10:07:00;;;;;;;21.47;19.37;;;;;;;14.45;62.83;98749.72;4799734;29;104243;-82
2021/04/20 10:09:37;;;;;;;19.57;17.67;;;;;;;14.62;62.80;98734.94;4812076;29;103700;-83
2021/04/20 10:12:22;;;;;;;19.30;17.43;;;;;;;14.89;61.79;98736.97;4816863;29;103141;-81
2021/04/20 10:14:57;;;;;;;22.23;20.03;;;;;;;14.99;62.63;98743.13;4802731;29;106913;-83
2021/04/20 10:17:32;;;;;;;16.90;15.30;;;;;;;16.25;59.18;98735.78;4817800;29;103836;-82
2021/04/20 10:20:12;;;;;;;15.43;13.83;;;;;;;16.90;55.69;98735.81;4815520;29;103041;-83
2021/04/20 10:22:49;;;;;;;15.60;14.10;;;;;;;17.21;57.23;98729.13;4802112;29;103198;-82
2021/04/20 10:25:27;;;;;;;20.15;18.15;;;;;;;15.72;59.08;98726.66;4827723;29;103281;-82
2021/04/20 10:28:00;;;;;;;17.30;15.60;;;;;;;16.42;56.33;98725.34;4817923;29;104706;-82
2021/04/20 10:30:31;;;;;;;13.07;11.88;;;;;;;17.43;56.05;98718.00;4816767;29;103327;-83
2021/04/20 10:32:59;;;;;;;12.85;11.55;;;;;;;17.74;53.78;98716.63;4797810;29;103109;-83
2021/04/20 10:35:30;;;;;;;17.80;16.00;;;;;;;17.34;54.85;98717.09;4795703;29;103847;-85
2021/04/20 10:38:02;;;;;;;15.93;14.43;;;;;;;17.49;54.08;98720.03;4810244;29;104197;-83
2021/04/20 10:40:34;;;;;;;14.05;12.48;;;;;;;17.89;52.92;98719.56;4827537;29;103160;-81
2021/04/20 10:43:07;;;;;;;14.55;13.20;;;;;;;16.30;55.39;98711.38;4812981;29;103403;-83
2021/04/20 10:45:35;;;;;;;15.32;13.73;;;;;;;16.86;54.58;98702.41;4807380;29;104139;-80
2021/04/20 10:48:05;;;;;;;14.30;12.88;;;;;;;17.15;53.68;98700.38;4826598;29;103432;-81
2021/04/20 10:50:35;;;;;;;16.38;14.75;;;;;;;15.98;56.58;98702.91;4810954;29;103173;-82
2021/04/20 10:53:08;;;;;;;14.27;12.98;;;;;;;17.19;51.72;98699.91;4781860;29;103057;-86
2021/04/20 10:55:39;;;;;;;15.65;14.15;;;;;;;15.54;55.85;98694.59;4797696;29;105722;-87
2021/04/20 10:58:08;;;;;;;13.60;12.40;;;;;;;16.93;54.94;98695.47;4797852;29;107137;-84
2021/04/20 11:00:38;;;;;;;16.05;14.52;;;;;;;16.29;53.78;98691.00;4799601;29;103156;-85
2021/04/20 11:03:08;;;;;;;19.70;17.40;;;;;;;17.01;52.07;98690.25;4799143;29;102955;-84
2021/04/20 11:05:35;;;;;;;16.08;14.45;;;;;;;16.42;52.53;98688.84;4802700;29;104236;-86
2021/04/20 11:08:04;;;;;;;15.93;14.40;;;;;;;15.26;54.90;98687.44;4789263;29;104204;-79
2021/04/20 11:10:36;;;;;;;16.30;14.27;;;;;;;15.01;55.63;98683.50;4789405;29;103252;-81
2021/04/20 11:13:07;;;;;;;15.52;14.02;;;;;;;15.31;56.00;98687.84;4801987;29;103487;-83
2021/04/20 11:15:34;;;;;;;15.63;14.23;;;;;;;15.46;54.47;98678.50;4797373;29;104579;-86
2021/04/20 11:18:07;;;;;;;16.42;14.82;;;;;;;15.06;55.59;98677.75;4800451;29;104388;-84
2021/04/20 11:20:39;;;;;;;14.27;13.05;;;;;;;15.10;55.34;98676.53;4783836;29;103965;-79
2021/04/20 11:23:17;;;;;;;16.42;14.75;;;;;;;15.39;54.82;98671.16;4791617;29;103288;-80
2021/04/20 11:25:57;;;;;;;16.70;14.95;;;;;;;15.03;56.10;98672.72;4788680;29;104070;-81
2021/04/20 11:28:28;;;;;;;11.35;10.20;;;;;;;17.06;53.39;98661.25;4774854;29;103752;-83